Time;durP1;ratioP1;P1;durP2;ratioP2;P2;SDS_P1;SDS_P2;PMS_P1;PMS_P2;Temp;Humidity;BMP_temperature;BMP_pressure;BME280_temperature;BME280_humidity;BME280_pressure;Samples;Min_cycle;Max_cycle;Signal;HPM_P1;HPM_P2
2024/03/18 00:01:52;;;;;;;;;;;;;;;3.09;67.91;100813.98;107802;1278;22502;-83
2024/03/18 00:04:42;;;;;;;;;;;;;;;3.06;67.68;100815.43;107793;1277;22518;-84
2024/03/18 00:07:33;;;;;;;;;;;;;;;3.02;68.10;100810.45;107912;1277;25200;-84
2024/03/18 00:10:23;;;;;;;;;;;;;;;3.03;68.05;100811.05;108171;1277;22538;-83
2024/03/18 00:13:12;;;;;;;;;;;;;;;3.02;67.91;100812.50;108009;1277;25255;-84
2024/03/18 00:16:06;;;;;;;;;;;;;;;3.00;68.12;100809.46;108157;1277;23226;-85
2024/03/18 00:18:56;;;;;;;;;;;;;;;2.98;68.03;100809.95;108020;1277;24391;-83
2024/03/18 00:21:45;;;;;;;;;;;;;;;2.94;68.11;100809.29;107984;1277;22654;-83
2024/03/18 00:24:36;;;;;;;;;;;;;;;2.91;68.40;100807.36;107935;1277;23043;-83
2024/03/18 00:27:26;;;;;;;;;;;;;;;2.88;68.41;100802.98;108107;1277;22526;-83
2024/03/18 00:30:16;;;;;;;;;;;;;;;2.85;68.45;100803.83;108161;1277;25331;-84
2024/03/18 00:33:05;;;;;;;;;;;;;;;2.81;68.04;100800.23;107970;1277;25279;-83
2024/03/18 00:35:57;;;;;;;;;;;;;;;2.80;67.92;100798.05;108244;1277;23253;-83
2024/03/18 00:38:47;;;;;;;;;;;;;;;2.78;67.81;100791.30;108109;1277;23266;-83
2024/03/18 00:41:46;;;;;;;;;;;;;;;2.74;67.61;100791.03;107947;1277;22538;-83
2024/03/18 00:44:35;;;;;;;;;;;;;;;2.70;67.45;100787.69;108127;1277;22560;-85
2024/03/18 00:47:25;;;;;;;;;;;;;;;2.66;67.68;100786.64;107935;1277;24651;-83
2024/03/18 00:50:17;;;;;;;;;;;;;;;2.65;67.46;100787.45;108114;1277;22538;-84
2024/03/18 00:53:09;;;;;;;;;;;;;;;2.63;67.15;100791.09;108075;1278;22537;-84
2024/03/18 00:55:59;;;;;;;;;;;;;;;2.56;67.08;100790.68;108001;1277;22508;-84
2024/03/18 00:58:50;;;;;;;;;;;;;;;2.53;67.23;100789.32;108162;1278;22518;-85
2024/03/18 01:01:40;;;;;;;;;;;;;;;2.49;67.34;100794.88;108099;1277;22618;-83
2024/03/18 01:04:31;;;;;;;;;;;;;;;2.49;67.63;100788.02;108142;1277;22591;-83
2024/03/18 01:07:21;;;;;;;;;;;;;;;2.49;67.63;100793.13;108111;1270;23332;-83
2024/03/18 01:10:12;;;;;;;;;;;;;;;2.47;67.51;100795.36;108135;1277;23224;-83
2024/03/18 01:13:06;;;;;;;;;;;;;;;2.45;67.51;100789.86;108129;1277;25386;-83
2024/03/18 01:15:56;;;;;;;;;;;;;;;2.42;67.53;100788.34;108121;1277;24186;-83
2024/03/18 01:18:47;;;;;;;;;;;;;;;2.39;67.67;100787.42;108160;1277;23290;-85
2024/03/18 01:21:37;;;;;;;;;;;;;;;2.38;67.76;100790.11;108264;1277;23929;-83
2024/03/18 01:24:27;;;;;;;;;;;;;;;2.36;67.81;100790.21;108114;1278;22614;-83
2024/03/18 01:27:18;;;;;;;;;;;;;;;2.37;67.99;100790.19;107953;1278;22557;-82
2024/03/18 01:30:12;;;;;;;;;;;;;;;2.36;67.99;100790.13;108313;1278;22534;-83
2024/03/18 01:33:02;;;;;;;;;;;;;;;2.37;68.06;100791.54;108400;1278;24650;-83
2024/03/18 01:35:53;;;;;;;;;;;;;;;2.38;68.18;100790.50;108216;1278;22603;-84
2024/03/18 01:38:43;;;;;;;;;;;;;;;2.36;68.16;100792.89;108246;1277;22538;-85
2024/03/18 01:41:33;;;;;;;;;;;;;;;2.29;68.33;100788.79;108247;1273;22513;-83
2024/03/18 01:44:23;;;;;;;;;;;;;;;2.24;68.09;100789.55;108335;1277;22535;-83
2024/03/18 01:47:13;;;;;;;;;;;;;;;2.20;68.22;100791.56;108114;1278;22540;-84
2024/03/18 01:50:03;;;;;;;;;;;;;;;2.18;68.31;100791.41;108091;1278;25215;-83
2024/03/18 01:52:53;;;;;;;;;;;;;;;2.18;68.55;100791.35;108236;1278;22792;-83
2024/03/18 01:55:43;;;;;;;;;;;;;;;2.14;68.26;100789.80;108349;1278;22755;-82
2024/03/18 01:58:33;;;;;;;;;;;;;;;2.09;68.22;100793.33;108186;1271;22512;-83
2024/03/18 02:01:23;;;;;;;;;;;;;;;2.06;68.37;100793.90;108180;1278;22800;-83
2024/03/18 02:04:13;;;;;;;;;;;;;;;2.05;68.25;100794.30;108195;1278;25329;-83
2024/03/18 02:07:30;;;;;;;;;;;;;;;2.04;68.33;100794.23;108412;1277;24372;-85
2024/03/18 02:10:20;;;;;;;;;;;;;;;2.05;68.47;100794.86;108232;1278;24223;-84
2024/03/18 02:13:09;;;;;;;;;;;;;;;2.07;68.38;100793.66;108178;1278;23370;-84
2024/03/18 02:16:01;;;;;;;;;;;;;;;2.02;68.15;100794.56;108377;1278;24358;-85
2024/03/18 02:18:50;;;;;;;;;;;;;;;2.01;68.45;100795.28;108316;1278;24235;-85
2024/03/18 02:21:40;;;;;;;;;;;;;;;2.03;68.29;100790.70;108185;1277;26677;-84
2024/03/18 02:24:30;;;;;;;;;;;;;;;1.99;68.06;100786.26;108233;1277;22512;-84
2024/03/18 02:27:19;;;;;;;;;;;;;;;1.95;67.89;100785.02;108264;1277;22536;-84
2024/03/18 02:30:11;;;;;;;;;;;;;;;1.94;67.69;100779.63;108420;1277;22546;-84
2024/03/18 02:33:01;;;;;;;;;;;;;;;1.93;67.57;100778.76;108527;1277;22789;-83
2024/03/18 02:35:51;;;;;;;;;;;;;;;1.94;67.45;100775.69;108686;1277;22470;-84
2024/03/18 02:38:41;;;;;;;;;;;;;;;1.93;67.74;100775.77;108227;1277;22685;-85
2024/03/18 02:41:31;;;;;;;;;;;;;;;1.94;67.24;100776.23;108291;1277;24295;-84
2024/03/18 02:44:21;;;;;;;;;;;;;;;1.89;66.67;100777.70;108250;1263;24364;-84
2024/03/18 02:47:11;;;;;;;;;;;;;;;1.85;66.79;100776.55;108331;1277;24203;-85
2024/03/18 02:50:02;;;;;;;;;;;;;;;1.79;66.88;100776.27;108311;1277;22567;-84
2024/03/18 02:52:52;;;;;;;;;;;;;;;1.80;67.14;100775.02;108221;1277;22561;-84
2024/03/18 02:55:41;;;;;;;;;;;;;;;1.81;67.09;100772.89;108277;1277;22561;-85
2024/03/18 02:58:31;;;;;;;;;;;;;;;1.79;66.83;100772.19;108394;1277;22499;-84
2024/03/18 03:01:22;;;;;;;;;;;;;;;1.76;66.91;100771.52;108245;1277;25421;-84
2024/03/18 03:04:11;;;;;;;;;;;;;;;1.71;67.08;100771.55;108344;1277;22582;-84
2024/03/18 03:07:01;;;;;;;;;;;;;;;1.70;66.79;100767.65;108362;1276;22578;-84
2024/03/18 03:09:51;;;;;;;;;;;;;;;1.65;66.67;100766.27;108266;1277;22635;-84
2024/03/18 03:12:41;;;;;;;;;;;;;;;1.62;66.85;100760.78;108248;1277;22613;-84
2024/03/18 03:15:34;;;;;;;;;;;;;;;1.62;67.06;100761.17;108340;1277;22978;-84
2024/03/18 03:18:24;;;;;;;;;;;;;;;1.62;66.88;100761.02;108252;1277;22562;-84
2024/03/18 03:21:15;;;;;;;;;;;;;;;1.58;67.04;100763.41;108271;1277;22543;-84
2024/03/18 03:24:06;;;;;;;;;;;;;;;1.55;67.13;100766.83;108388;1264;22539;-84
2024/03/18 03:26:56;;;;;;;;;;;;;;;1.52;67.25;100765.27;108157;1278;22566;-84
2024/03/18 03:29:45;;;;;;;;;;;;;;;1.44;67.12;100766.18;108290;1265;24038;-85
2024/03/18 03:32:37;;;;;;;;;;;;;;;1.36;67.33;100767.67;108327;1278;25267;-84
2024/03/18 03:35:28;;;;;;;;;;;;;;;1.32;67.72;100769.58;108354;1278;22512;-85
2024/03/18 03:38:18;;;;;;;;;;;;;;;1.28;67.73;100769.92;108364;1277;22656;-84
2024/03/18 03:41:08;;;;;;;;;;;;;;;1.20;67.59;100772.18;108270;1278;22539;-85
2024/03/18 03:43:58;;;;;;;;;;;;;;;1.12;67.69;100776.63;108275;1266;25263;-84
2024/03/18 03:46:50;;;;;;;;;;;;;;;1.06;67.89;100777.67;108315;1277;22603;-85
2024/03/18 03:49:41;;;;;;;;;;;;;;;1.00;68.02;100777.88;108213;1278;22667;-84
2024/03/18 03:52:30;;;;;;;;;;;;;;;0.96;68.15;100784.59;108066;1277;22587;-85
2024/03/18 03:55:20;;;;;;;;;;;;;;;0.95;68.45;100781.37;108367;1278;22542;-84
2024/03/18 03:58:10;;;;;;;;;;;;;;;0.92;68.44;100783.27;108331;1277;22579;-85
2024/03/18 04:00:59;;;;;;;;;;;;;;;0.88;68.52;100780.67;108362;1278;22533;-84
2024/03/18 04:03:49;;;;;;;;;;;;;;;0.83;68.36;100777.09;108305;1267;23269;-84
2024/03/18 04:06:38;;;;;;;;;;;;;;;0.78;68.47;100772.81;108166;1277;22537;-84
2024/03/18 04:09:29;;;;;;;;;;;;;;;0.76;68.73;100774.86;107867;1277;24370;-83
2024/03/18 04:12:20;;;;;;;;;;;;;;;0.70;68.60;100774.02;108129;1277;24236;-83
2024/03/18 04:15:14;;;;;;;;;;;;;;;0.66;68.55;100772.47;108299;1277;22572;-83
2024/03/18 04:18:06;;;;;;;;;;;;;;;0.60;68.47;100775.09;108132;1266;25441;-83
2024/03/18 04:20:57;;;;;;;;;;;;;;;0.57;68.63;100772.59;108244;1278;22974;-84
2024/03/18 04:23:47;;;;;;;;;;;;;;;0.54;68.59;100773.45;108247;1277;22539;-83
2024/03/18 04:26:37;;;;;;;;;;;;;;;0.51;68.73;100774.89;108159;1277;22770;-83
2024/03/18 04:29:30;;;;;;;;;;;;;;;0.46;68.73;100776.70;108250;1277;22616;-83
2024/03/18 04:32:20;;;;;;;;;;;;;;;0.42;68.83;100773.90;108241;1277;22823;-83
2024/03/18 04:35:13;;;;;;;;;;;;;;;0.38;68.91;100772.73;107796;1277;25283;-85
2024/03/18 04:38:05;;;;;;;;;;;;;;;0.33;69.14;100769.21;107636;1277;25501;-81
2024/03/18 04:40:56;;;;;;;;;;;;;;;0.32;69.45;100769.13;107689;1277;22878;-83
2024/03/18 04:43:45;;;;;;;;;;;;;;;0.31;69.46;100767.41;107611;1278;25394;-84
2024/03/18 04:46:36;;;;;;;;;;;;;;;0.30;69.63;100767.89;107740;1277;25256;-81
2024/03/18 04:49:27;;;;;;;;;;;;;;;0.24;69.57;100769.48;110395;1276;22491;-82
2024/03/18 04:52:16;;;;;;;;;;;;;;;0.18;69.69;100769.96;108594;1271;24348;-83
2024/03/18 04:55:06;;;;;;;;;;;;;;;0.17;69.92;100770.03;107936;1277;25450;-82
2024/03/18 04:57:56;;;;;;;;;;;;;;;0.15;69.68;100773.02;107880;1270;25008;-82
2024/03/18 05:00:45;;;;;;;;;;;;;;;0.08;69.86;100772.41;107871;1273;24359;-82
2024/03/18 05:03:34;;;;;;;;;;;;;;;0.04;69.92;100770.70;107791;1270;24719;-79
2024/03/18 05:06:25;;;;;;;;;;;;;;;-0.03;70.04;100773.92;107828;1277;23980;-80
2024/03/18 05:09:15;;;;;;;;;;;;;;;-0.09;70.14;100769.23;107828;1277;22525;-80
2024/03/18 05:12:04;;;;;;;;;;;;;;;-0.09;70.40;100771.04;107772;1265;22505;-80
2024/03/18 05:14:55;;;;;;;;;;;;;;;-0.10;70.21;100768.45;107780;1277;24221;-80
2024/03/18 05:17:44;;;;;;;;;;;;;;;-0.12;70.29;100767.20;107738;1277;22505;-81
2024/03/18 05:20:34;;;;;;;;;;;;;;;-0.14;70.15;100766.64;107582;1277;23150;-83
2024/03/18 05:23:28;;;;;;;;;;;;;;;-0.16;70.33;100763.05;107249;1273;23363;-79
2024/03/18 05:26:17;;;;;;;;;;;;;;;-0.16;70.71;100767.11;107307;1277;23154;-80
2024/03/18 05:29:07;;;;;;;;;;;;;;;-0.14;70.77;100765.31;107375;1270;22789;-80
2024/03/18 05:31:56;;;;;;;;;;;;;;;-0.11;70.80;100764.20;107384;1272;22521;-79
2024/03/18 05:34:45;;;;;;;;;;;;;;;-0.08;71.08;100764.13;107386;1263;23667;-78
2024/03/18 05:37:37;;;;;;;;;;;;;;;-0.06;71.11;100768.13;107130;1277;22805;-78
2024/03/18 05:40:26;;;;;;;;;;;;;;;-0.07;70.99;100771.11;107240;1273;24607;-80
2024/03/18 05:43:16;;;;;;;;;;;;;;;-0.08;71.17;100768.83;107522;1273;26074;-79
2024/03/18 05:46:05;;;;;;;;;;;;;;;-0.08;71.33;100771.19;107492;1277;22623;-78
2024/03/18 05:48:57;;;;;;;;;;;;;;;-0.08;71.30;100771.33;107462;1274;25378;-79
2024/03/18 05:51:48;;;;;;;;;;;;;;;-0.04;71.45;100772.11;107468;1277;22558;-79
2024/03/18 05:54:37;;;;;;;;;;;;;;;-0.02;71.44;100773.36;107495;1261;22628;-79
2024/03/18 05:57:27;;;;;;;;;;;;;;;-0.00;71.58;100772.44;108136;1271;22658;-79
2024/03/18 06:00:18;;;;;;;;;;;;;;;0.05;71.69;100773.91;107579;1270;22568;-79
2024/03/18 06:03:07;;;;;;;;;;;;;;;0.13;71.51;100776.01;110549;1270;22324;-81
2024/03/18 06:05:57;;;;;;;;;;;;;;;0.19;71.76;100779.85;110496;1266;22414;-80
2024/03/18 06:08:46;;;;;;;;;;;;;;;0.24;71.50;100778.10;110515;1277;23208;-80
2024/03/18 06:11:36;;;;;;;;;;;;;;;0.29;71.32;100776.84;110344;1277;22583;-80
2024/03/18 06:14:25;;;;;;;;;;;;;;;0.34;71.06;100781.92;110378;1277;166081;-80
2024/03/18 06:17:15;;;;;;;;;;;;;;;0.40;71.00;100785.83;110483;1273;22294;-81
2024/03/18 06:20:04;;;;;;;;;;;;;;;0.48;71.22;100786.66;110444;1272;22363;-81
2024/03/18 06:22:53;;;;;;;;;;;;;;;0.54;70.82;100785.46;110518;1258;22400;-81
2024/03/18 06:26:03;;;;;;;;;;;;;;;0.58;70.84;100781.68;110528;1271;22404;-81
2024/03/18 06:28:53;;;;;;;;;;;;;;;0.66;70.88;100776.47;110494;1273;22487;-81
2024/03/18 06:31:41;;;;;;;;;;;;;;;0.71;70.59;100781.79;110530;1273;22310;-80
2024/03/18 06:34:30;;;;;;;;;;;;;;;0.74;70.37;100779.34;110476;1270;22327;-80
2024/03/18 06:37:20;;;;;;;;;;;;;;;0.79;70.45;100777.04;110484;1273;22348;-80
2024/03/18 06:40:11;;;;;;;;;;;;;;;0.85;70.28;100778.11;110421;1277;22507;-81
2024/03/18 06:43:01;;;;;;;;;;;;;;;0.89;70.30;100769.62;110505;1277;23222;-80
2024/03/18 06:45:50;;;;;;;;;;;;;;;0.94;70.46;100766.45;110550;1269;22376;-81
2024/03/18 06:48:39;;;;;;;;;;;;;;;0.97;70.21;100767.92;110520;1271;22340;-80
2024/03/18 06:51:28;;;;;;;;;;;;;;;1.01;70.46;100767.75;110503;1271;22563;-81
2024/03/18 06:54:20;;;;;;;;;;;;;;;1.05;70.17;100766.23;110454;1277;23228;-80
2024/03/18 06:57:10;;;;;;;;;;;;;;;1.08;70.03;100764.16;110446;1269;22408;-78
2024/03/18 07:00:02;;;;;;;;;;;;;;;1.11;69.90;100759.11;110497;1277;22392;-78
2024/03/18 07:02:52;;;;;;;;;;;;;;;1.17;69.95;100760.10;110464;1277;23131;-78
2024/03/18 07:05:41;;;;;;;;;;;;;;;1.23;70.09;100756.76;110486;1277;22512;-78
2024/03/18 07:08:30;;;;;;;;;;;;;;;1.27;69.79;100755.78;110527;1272;22990;-78
2024/03/18 07:11:19;;;;;;;;;;;;;;;1.27;69.68;100758.23;110527;1273;22352;-78
2024/03/18 07:14:08;;;;;;;;;;;;;;;1.25;69.92;100756.19;110549;1277;22303;-78
2024/03/18 07:16:58;;;;;;;;;;;;;;;1.27;70.32;100758.30;110525;1277;22370;-78
2024/03/18 07:19:47;;;;;;;;;;;;;;;1.32;70.32;100758.81;110444;1272;22522;-80
2024/03/18 07:22:36;;;;;;;;;;;;;;;1.38;69.29;100756.25;110513;1270;22394;-79
2024/03/18 07:25:25;;;;;;;;;;;;;;;1.42;68.53;100754.73;110532;1277;22434;-80
2024/03/18 07:28:15;;;;;;;;;;;;;;;1.45;68.54;100753.45;110562;1272;22437;-79
2024/03/18 07:31:04;;;;;;;;;;;;;;;1.50;68.35;100756.23;110524;1277;22333;-80
2024/03/18 07:33:53;;;;;;;;;;;;;;;1.56;68.47;100757.61;110491;1271;23049;-80
2024/03/18 07:36:42;;;;;;;;;;;;;;;1.63;68.26;100759.20;110539;1277;22306;-79
2024/03/18 07:39:31;;;;;;;;;;;;;;;1.68;67.56;100758.61;110541;1269;22499;-80
2024/03/18 07:42:20;;;;;;;;;;;;;;;1.67;67.23;100757.84;110341;1271;23422;-79
2024/03/18 07:45:10;;;;;;;;;;;;;;;1.70;67.83;100760.17;110509;1271;22457;-80
2024/03/18 07:48:04;;;;;;;;;;;;;;;1.74;67.67;100757.39;110563;1276;22373;-80
2024/03/18 07:50:56;;;;;;;;;;;;;;;1.76;67.62;100757.05;110546;1277;22416;-80
2024/03/18 07:53:46;;;;;;;;;;;;;;;1.84;67.94;100754.23;110418;1277;22959;-80
2024/03/18 07:56:35;;;;;;;;;;;;;;;1.87;67.15;100753.56;110555;1277;23138;-79
2024/03/18 07:59:25;;;;;;;;;;;;;;;1.90;67.28;100747.88;110581;1271;22349;-80
2024/03/18 08:02:14;;;;;;;;;;;;;;;1.95;67.35;100747.35;110489;1271;22474;-80
2024/03/18 08:05:03;;;;;;;;;;;;;;;2.04;67.45;100744.20;110531;1274;22369;-80
2024/03/18 08:07:53;;;;;;;;;;;;;;;2.14;67.02;100748.66;110483;1273;23064;-80
2024/03/18 08:10:42;;;;;;;;;;;;;;;2.19;67.10;100746.47;110513;1271;22812;-80
2024/03/18 08:13:31;;;;;;;;;;;;;;;2.26;66.74;100741.35;110506;1271;23208;-80
2024/03/18 08:16:20;;;;;;;;;;;;;;;2.31;66.91;100741.77;110572;1272;23034;-80
2024/03/18 08:19:09;;;;;;;;;;;;;;;2.37;66.94;100736.89;110472;1275;23397;-80
2024/03/18 08:21:59;;;;;;;;;;;;;;;2.40;66.29;100742.05;110547;1269;22511;-80
2024/03/18 08:24:48;;;;;;;;;;;;;;;2.43;66.25;100739.67;110535;1271;23084;-80
2024/03/18 08:27:38;;;;;;;;;;;;;;;2.47;65.82;100738.98;110534;1270;23406;-80
2024/03/18 08:30:27;;;;;;;;;;;;;;;2.51;65.46;100739.95;110493;1276;22978;-80
2024/03/18 08:33:16;;;;;;;;;;;;;;;2.56;65.65;100738.89;110452;1269;22464;-79
2024/03/18 08:36:06;;;;;;;;;;;;;;;2.54;65.28;100733.86;110525;1277;22966;-80
2024/03/18 08:38:57;;;;;;;;;;;;;;;2.58;65.54;100729.80;110528;1277;23143;-80
2024/03/18 08:41:47;;;;;;;;;;;;;;;2.63;65.48;100730.67;110527;1277;22382;-79
2024/03/18 08:44:36;;;;;;;;;;;;;;;2.70;65.46;100728.30;110541;1277;22377;-80
2024/03/18 08:47:25;;;;;;;;;;;;;;;2.81;65.67;100729.19;110592;1258;22344;-79
2024/03/18 08:50:14;;;;;;;;;;;;;;;2.83;64.41;100725.92;110527;1274;22348;-80
2024/03/18 08:53:05;;;;;;;;;;;;;;;2.78;64.41;100727.89;110526;1270;22413;-80
2024/03/18 08:55:54;;;;;;;;;;;;;;;2.73;64.22;100725.74;110513;1274;22303;-80
2024/03/18 08:58:44;;;;;;;;;;;;;;;2.69;64.27;100726.10;110536;1274;22329;-80
2024/03/18 09:01:33;;;;;;;;;;;;;;;2.71;64.43;100730.33;110396;1272;22304;-80
2024/03/18 09:04:22;;;;;;;;;;;;;;;2.74;64.15;100730.93;110389;1268;22874;-80
2024/03/18 09:07:11;;;;;;;;;;;;;;;2.76;64.03;100731.30;110485;1271;22414;-80
2024/03/18 09:10:00;;;;;;;;;;;;;;;2.78;64.21;100732.14;110489;1275;22847;-80
2024/03/18 09:12:50;;;;;;;;;;;;;;;2.82;63.77;100733.19;110522;1274;22398;-80
2024/03/18 09:15:39;;;;;;;;;;;;;;;2.85;63.68;100732.74;110499;1276;22355;-79
2024/03/18 09:18:28;;;;;;;;;;;;;;;2.91;63.63;100729.67;110510;1269;22512;-80
2024/03/18 09:21:17;;;;;;;;;;;;;;;2.98;63.69;100728.01;110440;1271;22397;-80
2024/03/18 09:24:07;;;;;;;;;;;;;;;3.00;63.27;100724.67;110469;1269;23183;-79
2024/03/18 09:26:58;;;;;;;;;;;;;;;2.95;63.05;100728.42;110361;1275;22474;-79
2024/03/18 09:29:49;;;;;;;;;;;;;;;2.92;63.42;100731.00;110373;1278;22428;-79
2024/03/18 09:32:38;;;;;;;;;;;;;;;3.00;63.84;100725.92;110441;1278;22465;-79
2024/03/18 09:35:28;;;;;;;;;;;;;;;3.13;63.84;100721.55;110387;1273;22303;-79
2024/03/18 09:38:17;;;;;;;;;;;;;;;3.21;63.29;100724.02;110335;1275;23282;-80
2024/03/18 09:41:07;;;;;;;;;;;;;;;3.25;63.19;100721.99;110386;1268;22964;-79
2024/03/18 09:43:56;;;;;;;;;;;;;;;3.30;62.89;100720.64;110320;1270;22357;-79
2024/03/18 09:46:45;;;;;;;;;;;;;;;3.34;63.22;100720.99;110354;1272;22397;-79
2024/03/18 09:49:35;;;;;;;;;;;;;;;3.40;63.36;100719.64;110356;1267;22396;-79
2024/03/18 09:52:25;;;;;;;;;;;;;;;3.44;62.39;100718.07;110373;1271;22310;-79
2024/03/18 09:55:31;;;;;;;;;;;;;;;3.37;62.09;100712.91;110388;1270;23224;-78
2024/03/18 09:58:20;;;;;;;;;;;;;;;3.32;62.32;100710.53;110316;1275;22351;-79
2024/03/18 10:01:11;;;;;;;;;;;;;;;3.29;62.23;100708.77;110367;1266;22395;-79
2024/03/18 10:04:01;;;;;;;;;;;;;;;3.22;62.11;100707.78;110349;1271;22415;-79
2024/03/18 10:06:53;;;;;;;;;;;;;;;3.20;62.44;100704.27;110353;1258;22507;-79
2024/03/18 10:09:45;;;;;;;;;;;;;;;3.24;62.36;100704.58;110368;1273;22372;-80
2024/03/18 10:12:34;;;;;;;;;;;;;;;3.29;61.86;100702.77;110262;1271;22429;-79
2024/03/18 10:15:23;;;;;;;;;;;;;;;3.26;61.46;100700.61;110364;1272;22392;-79
2024/03/18 10:18:13;;;;;;;;;;;;;;;3.22;61.59;100700.68;110360;1272;22338;-79
2024/03/18 10:21:03;;;;;;;;;;;;;;;3.20;61.68;100698.18;110334;1271;22388;-79
2024/03/18 10:23:54;;;;;;;;;;;;;;;3.19;61.48;100699.46;110359;1266;22387;-79
2024/03/18 10:26:44;;;;;;;;;;;;;;;3.20;61.90;100695.75;110338;1275;22337;-79
2024/03/18 10:29:34;;;;;;;;;;;;;;;3.27;62.10;100695.64;110340;1271;22432;-78
2024/03/18 10:32:26;;;;;;;;;;;;;;;3.33;61.90;100693.55;110383;1275;22395;-79
2024/03/18 10:35:20;;;;;;;;;;;;;;;3.41;62.19;100691.63;110363;1274;23167;-79
2024/03/18 10:38:11;;;;;;;;;;;;;;;3.52;61.99;100696.17;110334;1271;22399;-79
2024/03/18 10:41:01;;;;;;;;;;;;;;;3.52;60.67;100693.58;110347;1271;23030;-79
2024/03/18 10:43:54;;;;;;;;;;;;;;;3.45;61.12;100690.61;110323;1276;22415;-80
2024/03/18 10:46:44;;;;;;;;;;;;;;;3.47;61.13;100689.63;110344;1270;22402;-79
2024/03/18 10:49:33;;;;;;;;;;;;;;;3.48;61.02;100689.20;110308;1271;22313;-79
2024/03/18 10:52:24;;;;;;;;;;;;;;;3.49;61.31;100688.65;110347;1273;23171;-80
2024/03/18 10:55:16;;;;;;;;;;;;;;;3.56;61.40;100691.44;110334;1271;22407;-79
2024/03/18 10:58:05;;;;;;;;;;;;;;;3.62;61.25;100687.41;110418;1274;23236;-80
2024/03/18 11:00:54;;;;;;;;;;;;;;;3.66;61.02;100688.59;110375;1274;22486;-79
2024/03/18 11:03:45;;;;;;;;;;;;;;;3.66;60.67;100688.36;110350;1274;22353;-81
2024/03/18 11:06:34;;;;;;;;;;;;;;;3.64;60.73;100690.84;110391;1274;22388;-81
2024/03/18 11:09:24;;;;;;;;;;;;;;;3.68;60.88;100687.05;110383;1272;22934;-82
2024/03/18 11:12:27;;;;;;;;;;;;;;;3.74;60.77;100683.33;110387;1278;22421;-80
2024/03/18 11:15:17;;;;;;;;;;;;;;;3.71;60.19;100681.64;110338;1270;22409;-81
2024/03/18 11:18:07;;;;;;;;;;;;;;;3.70;60.58;100678.27;110315;1270;22391;-82
2024/03/18 11:20:59;;;;;;;;;;;;;;;3.71;60.43;100679.20;110372;1277;23267;-80
2024/03/18 11:23:59;;;;;;;;;;;;;;;3.74;60.47;100677.58;110387;1278;22376;-80
2024/03/18 11:26:53;;;;;;;;;;;;;;;3.77;60.27;100677.42;110342;1277;22902;-79
2024/03/18 11:29:46;;;;;;;;;;;;;;;3.77;59.86;100679.16;110378;1277;23187;-79
2024/03/18 11:32:35;;;;;;;;;;;;;;;3.77;60.08;100673.23;110386;1277;22484;-79
2024/03/18 11:35:25;;;;;;;;;;;;;;;3.84;60.67;100672.64;110372;1273;22321;-79
2024/03/18 11:38:16;;;;;;;;;;;;;;;3.93;60.10;100672.23;110358;1276;22375;-79
2024/03/18 11:41:05;;;;;;;;;;;;;;;3.92;59.70;100671.54;110353;1274;22365;-79
2024/03/18 11:43:54;;;;;;;;;;;;;;;3.93;60.44;100673.34;110356;1274;22318;-79
2024/03/18 11:46:43;;;;;;;;;;;;;;;4.00;60.25;100663.18;110347;1274;22388;-79
2024/03/18 11:49:33;;;;;;;;;;;;;;;4.04;59.91;100663.81;110379;1275;23091;-79
2024/03/18 11:52:22;;;;;;;;;;;;;;;4.06;60.12;100663.36;110301;1276;22420;-79
2024/03/18 11:55:15;;;;;;;;;;;;;;;4.08;59.78;100661.20;110420;1274;22360;-79
2024/03/18 11:58:06;;;;;;;;;;;;;;;4.03;59.65;100657.98;110349;1277;22495;-79
2024/03/18 12:00:55;;;;;;;;;;;;;;;4.02;59.39;100656.12;110391;1274;22423;-79
2024/03/18 12:03:43;;;;;;;;;;;;;;;3.99;59.80;100654.14;110373;1274;23314;-78
2024/03/18 12:06:38;;;;;;;;;;;;;;;3.98;59.57;100649.41;110371;1270;22391;-79
2024/03/18 12:09:29;;;;;;;;;;;;;;;3.94;59.53;100646.02;110379;1271;22358;-80
2024/03/18 12:12:18;;;;;;;;;;;;;;;3.94;60.02;100646.33;110362;1278;23220;-79
2024/03/18 12:15:08;;;;;;;;;;;;;;;3.99;59.75;100645.27;110368;1269;22530;-79
2024/03/18 12:17:58;;;;;;;;;;;;;;;4.02;59.58;100647.28;110412;1278;22333;-79
2024/03/18 12:20:53;;;;;;;;;;;;;;;4.00;59.34;100641.45;110369;1271;22478;-80
2024/03/18 12:29:58;;;;;;;;;;;;;;;3.95;59.28;100644.19;110376;1278;22390;-79
2024/03/18 12:32:49;;;;;;;;;;;;;;;3.92;58.48;100645.83;110380;1278;22331;-79
2024/03/18 12:35:39;;;;;;;;;;;;;;;3.83;58.61;100642.04;110386;1278;22831;-79
2024/03/18 12:38:35;;;;;;;;;;;;;;;3.82;59.02;100638.84;110372;1278;22349;-79
2024/03/18 12:41:24;;;;;;;;;;;;;;;3.85;59.11;100637.34;110398;1273;22346;-79
2024/03/18 12:44:14;;;;;;;;;;;;;;;3.93;59.50;100632.14;110342;1274;23043;-79
2024/03/18 12:47:03;;;;;;;;;;;;;;;3.99;59.36;100632.11;110507;1278;22377;-79
2024/03/18 12:49:54;;;;;;;;;;;;;;;4.01;58.82;100633.55;110385;1278;23191;-79
2024/03/18 12:52:43;;;;;;;;;;;;;;;4.00;58.79;100636.48;110370;1278;22356;-79
2024/03/18 12:55:33;;;;;;;;;;;;;;;3.99;58.45;100638.73;107678;1278;24360;-79
2024/03/18 12:58:22;;;;;;;;;;;;;;;3.94;58.44;100635.59;107656;1274;25344;-79
2024/03/18 13:01:14;;;;;;;;;;;;;;;3.91;58.81;100636.30;107517;1275;22980;-79
2024/03/18 13:04:03;;;;;;;;;;;;;;;3.91;58.89;100636.77;107500;1271;22711;-78
2024/03/18 13:06:53;;;;;;;;;;;;;;;3.92;59.26;100634.60;107460;1276;25434;-78
2024/03/18 13:09:42;;;;;;;;;;;;;;;4.01;59.33;100638.06;107479;1275;22605;-78
2024/03/18 13:12:33;;;;;;;;;;;;;;;4.06;58.66;100637.40;107608;1274;22610;-78
2024/03/18 13:15:23;;;;;;;;;;;;;;;3.96;58.21;100638.08;107428;1270;24347;-78
2024/03/18 13:18:13;;;;;;;;;;;;;;;3.88;58.67;100631.21;108444;1270;22594;-79
2024/03/18 13:21:04;;;;;;;;;;;;;;;3.86;58.26;100629.58;107416;1278;23986;-78
2024/03/18 13:23:52;;;;;;;;;;;;;;;3.87;58.95;100625.23;107660;1278;22654;-79
2024/03/18 13:26:42;;;;;;;;;;;;;;;3.99;59.29;100630.29;107601;1278;22645;-79
2024/03/18 13:29:31;;;;;;;;;;;;;;;4.08;58.64;100628.67;107692;1277;22718;-79
2024/03/18 13:32:21;;;;;;;;;;;;;;;4.12;58.40;100629.40;107705;1278;24187;-79
2024/03/18 13:35:12;;;;;;;;;;;;;;;4.18;58.65;100626.98;107539;1271;25432;-78
2024/03/18 13:38:03;;;;;;;;;;;;;;;4.23;58.16;100627.43;108142;1278;25403;-79
2024/03/18 13:40:52;;;;;;;;;;;;;;;4.23;58.10;100627.11;110372;1277;22377;-79
2024/03/18 13:43:43;;;;;;;;;;;;;;;4.26;58.01;100622.48;110389;1278;22358;-79
2024/03/18 13:46:32;;;;;;;;;;;;;;;4.25;57.82;100620.54;110423;1275;22374;-79
2024/03/18 13:49:21;;;;;;;;;;;;;;;4.26;57.96;100613.79;110402;1275;22391;-79
2024/03/18 13:52:13;;;;;;;;;;;;;;;4.29;58.02;100614.98;110381;1271;22403;-79
2024/03/18 13:55:04;;;;;;;;;;;;;;;4.34;58.07;100612.52;110406;1276;22399;-79
2024/03/18 13:57:53;;;;;;;;;;;;;;;4.42;58.14;100610.11;110425;1278;23144;-79
2024/03/18 14:00:44;;;;;;;;;;;;;;;4.49;58.17;100606.27;110422;1275;22362;-79
2024/03/18 14:03:33;;;;;;;;;;;;;;;4.51;57.87;100609.61;110400;1276;23183;-79
2024/03/18 14:06:22;;;;;;;;;;;;;;;4.46;57.49;100613.60;110404;1278;23466;-79
2024/03/18 14:09:11;;;;;;;;;;;;;;;4.40;57.78;100612.61;110393;1270;23286;-79
2024/03/18 14:12:01;;;;;;;;;;;;;;;4.38;57.63;100613.52;110427;1278;22376;-79
2024/03/18 14:14:50;;;;;;;;;;;;;;;4.27;57.35;100611.87;110403;1278;23134;-79
2024/03/18 14:17:40;;;;;;;;;;;;;;;4.27;57.75;100615.52;110440;1278;22413;-79
2024/03/18 14:20:30;;;;;;;;;;;;;;;4.18;57.41;100615.54;110430;1278;22427;-80
2024/03/18 14:23:19;;;;;;;;;;;;;;;4.06;57.48;100614.91;110415;1271;23216;-79
2024/03/18 14:26:09;;;;;;;;;;;;;;;3.99;58.06;100614.33;110406;1278;23059;-79
2024/03/18 14:28:59;;;;;;;;;;;;;;;3.99;57.99;100613.54;110500;1264;22460;-79
2024/03/18 14:31:48;;;;;;;;;;;;;;;3.94;57.74;100614.83;110324;1277;22376;-79
2024/03/18 14:34:37;;;;;;;;;;;;;;;3.85;57.68;100616.27;110329;1277;22478;-79
2024/03/18 14:37:30;;;;;;;;;;;;;;;3.84;57.86;100616.23;110442;1270;23085;-79
2024/03/18 14:40:19;;;;;;;;;;;;;;;3.82;57.86;100615.93;110538;1274;22370;-79